Terminal Aerodrome Forecast
Issued by NWS

Home | Current Version | Previous Version | Text Only | Print | Product List | Glossary On
Versions: 1 2 3 4 5 6 7 8 9 10 11 12 13 14 15 16 17
064
FTPA31 PHFO 252246 AAA
TAFHJR
TAF AMD
PHJR 252246Z 2523/2618 12009G15KT P6SM VCSH SCT030 BKN050
      TEMPO 2523/2602 3SM SHRA BR SCT015 BKN030
     FM260600 04004KT P6SM SCT060=

USA.gov is the U.S. government's official web portal to all federal, state and local government web resources and services.